sensor_id;sensor_type;location;lat;lon;timestamp;temperature;humidity
33139;DHT22;19501;50.948;5.316;2023-08-01T00:00:43;17.30;99.90
33139;DHT22;19501;50.948;5.316;2023-08-01T00:03:08;17.30;99.90
33139;DHT22;19501;50.948;5.316;2023-08-01T00:05:34;17.30;99.90
33139;DHT22;19501;50.948;5.316;2023-08-01T00:08:03;17.30;99.90
33139;DHT22;19501;50.948;5.316;2023-08-01T00:10:28;17.30;99.90
33139;DHT22;19501;50.948;5.316;2023-08-01T00:12:54;17.30;99.90
33139;DHT22;19501;50.948;5.316;2023-08-01T00:15:20;17.30;99.90
33139;DHT22;19501;50.948;5.316;2023-08-01T00:17:45;17.20;99.90
33139;DHT22;19501;50.948;5.316;2023-08-01T00:20:11;17.30;99.90
33139;DHT22;19501;50.948;5.316;2023-08-01T00:22:37;17.30;99.90
33139;DHT22;19501;50.948;5.316;2023-08-01T00:25:03;17.30;99.90
33139;DHT22;19501;50.948;5.316;2023-08-01T00:27:28;17.30;99.90
33139;DHT22;19501;50.948;5.316;2023-08-01T00:29:54;17.20;99.90
33139;DHT22;19501;50.948;5.316;2023-08-01T00:32:20;17.30;99.90
33139;DHT22;19501;50.948;5.316;2023-08-01T00:34:45;17.20;99.90
33139;DHT22;19501;50.948;5.316;2023-08-01T00:37:12;17.20;99.90
33139;DHT22;19501;50.948;5.316;2023-08-01T00:39:38;17.20;99.90
33139;DHT22;19501;50.948;5.316;2023-08-01T00:42:03;17.10;99.90
33139;DHT22;19501;50.948;5.316;2023-08-01T00:44:29;17.00;99.90
33139;DHT22;19501;50.948;5.316;2023-08-01T00:46:55;16.90;99.90
33139;DHT22;19501;50.948;5.316;2023-08-01T00:49:21;16.90;99.90
33139;DHT22;19501;50.948;5.316;2023-08-01T00:51:47;17.00;99.90
33139;DHT22;19501;50.948;5.316;2023-08-01T00:54:16;16.90;99.90
33139;DHT22;19501;50.948;5.316;2023-08-01T00:56:42;16.90;99.90
33139;DHT22;19501;50.948;5.316;2023-08-01T00:59:08;16.90;99.90
33139;DHT22;19501;50.948;5.316;2023-08-01T01:01:34;16.90;99.90
33139;DHT22;19501;50.948;5.316;2023-08-01T01:03:59;16.80;99.90
33139;DHT22;19501;50.948;5.316;2023-08-01T01:06:33;16.80;99.90
33139;DHT22;19501;50.948;5.316;2023-08-01T01:09:00;16.80;99.90
33139;DHT22;19501;50.948;5.316;2023-08-01T01:11:25;16.80;99.90
33139;DHT22;19501;50.948;5.316;2023-08-01T01:13:51;16.80;99.90
33139;DHT22;19501;50.948;5.316;2023-08-01T01:16:20;16.70;99.90
33139;DHT22;19501;50.948;5.316;2023-08-01T01:18:46;16.60;99.90
33139;DHT22;19501;50.948;5.316;2023-08-01T01:21:11;16.60;99.90
33139;DHT22;19501;50.948;5.316;2023-08-01T01:23:38;16.50;99.90
33139;DHT22;19501;50.948;5.316;2023-08-01T01:26:04;16.50;99.90
33139;DHT22;19501;50.948;5.316;2023-08-01T01:28:32;16.50;99.90
33139;DHT22;19501;50.948;5.316;2023-08-01T01:30:58;16.40;99.90
33139;DHT22;19501;50.948;5.316;2023-08-01T01:33:25;16.40;99.90
33139;DHT22;19501;50.948;5.316;2023-08-01T01:35:51;16.40;99.90
33139;DHT22;19501;50.948;5.316;2023-08-01T01:38:17;16.40;99.90
33139;DHT22;19501;50.948;5.316;2023-08-01T01:40:43;16.30;99.90
33139;DHT22;19501;50.948;5.316;2023-08-01T01:43:08;16.30;99.90
33139;DHT22;19501;50.948;5.316;2023-08-01T01:45:34;16.30;99.90
33139;DHT22;19501;50.948;5.316;2023-08-01T01:48:02;16.20;99.90
33139;DHT22;19501;50.948;5.316;2023-08-01T01:50:30;16.20;99.90
33139;DHT22;19501;50.948;5.316;2023-08-01T01:52:56;16.20;99.90
33139;DHT22;19501;50.948;5.316;2023-08-01T01:55:22;16.20;99.90
33139;DHT22;19501;50.948;5.316;2023-08-01T01:57:47;16.20;99.90
33139;DHT22;19501;50.948;5.316;2023-08-01T02:00:13;16.20;99.90
33139;DHT22;19501;50.948;5.316;2023-08-01T02:02:39;16.10;99.90
33139;DHT22;19501;50.948;5.316;2023-08-01T02:05:05;16.10;99.90
33139;DHT22;19501;50.948;5.316;2023-08-01T02:07:30;16.10;99.90
33139;DHT22;19501;50.948;5.316;2023-08-01T02:09:57;16.20;99.90
33139;DHT22;19501;50.948;5.316;2023-08-01T02:12:22;16.20;99.90
33139;DHT22;19501;50.948;5.316;2023-08-01T02:14:48;16.10;99.90
33139;DHT22;19501;50.948;5.316;2023-08-01T02:17:14;16.00;99.90
33139;DHT22;19501;50.948;5.316;2023-08-01T02:19:39;16.00;99.90
33139;DHT22;19501;50.948;5.316;2023-08-01T02:22:05;16.10;99.90
33139;DHT22;19501;50.948;5.316;2023-08-01T02:24:31;16.10;99.90
33139;DHT22;19501;50.948;5.316;2023-08-01T02:26:56;16.10;99.90
33139;DHT22;19501;50.948;5.316;2023-08-01T02:29:22;16.10;99.90
33139;DHT22;19501;50.948;5.316;2023-08-01T02:31:47;16.10;99.90
33139;DHT22;19501;50.948;5.316;2023-08-01T02:34:13;16.00;99.90
33139;DHT22;19501;50.948;5.316;2023-08-01T02:36:39;16.00;99.90
33139;DHT22;19501;50.948;5.316;2023-08-01T02:39:06;16.00;99.90
33139;DHT22;19501;50.948;5.316;2023-08-01T02:41:32;16.00;99.90
33139;DHT22;19501;50.948;5.316;2023-08-01T02:43:57;16.00;99.90
33139;DHT22;19501;50.948;5.316;2023-08-01T02:46:23;16.10;99.90
33139;DHT22;19501;50.948;5.316;2023-08-01T02:48:49;16.10;99.90
33139;DHT22;19501;50.948;5.316;2023-08-01T02:51:15;16.10;99.90
33139;DHT22;19501;50.948;5.316;2023-08-01T02:53:40;16.10;99.90
33139;DHT22;19501;50.948;5.316;2023-08-01T02:56:08;16.10;99.90
33139;DHT22;19501;50.948;5.316;2023-08-01T02:58:35;16.10;99.90
33139;DHT22;19501;50.948;5.316;2023-08-01T03:01:05;16.00;99.90
33139;DHT22;19501;50.948;5.316;2023-08-01T03:03:32;16.10;99.90
33139;DHT22;19501;50.948;5.316;2023-08-01T03:05:58;16.00;99.90
33139;DHT22;19501;50.948;5.316;2023-08-01T03:08:26;16.00;99.90
33139;DHT22;19501;50.948;5.316;2023-08-01T03:10:56;16.00;99.90
33139;DHT22;19501;50.948;5.316;2023-08-01T03:13:22;16.00;99.90
33139;DHT22;19501;50.948;5.316;2023-08-01T03:15:47;16.10;99.90
33139;DHT22;19501;50.948;5.316;2023-08-01T03:18:13;16.10;99.90
33139;DHT22;19501;50.948;5.316;2023-08-01T03:20:42;16.10;99.90
33139;DHT22;19501;50.948;5.316;2023-08-01T03:23:07;16.00;99.90
33139;DHT22;19501;50.948;5.316;2023-08-01T03:25:33;15.90;99.90
33139;DHT22;19501;50.948;5.316;2023-08-01T03:27:59;16.00;99.90
33139;DHT22;19501;50.948;5.316;2023-08-01T03:30:25;16.00;99.90
33139;DHT22;19501;50.948;5.316;2023-08-01T03:32:51;16.00;99.90
33139;DHT22;19501;50.948;5.316;2023-08-01T03:35:17;16.00;99.90
33139;DHT22;19501;50.948;5.316;2023-08-01T03:37:43;16.00;99.90
33139;DHT22;19501;50.948;5.316;2023-08-01T03:40:09;16.10;99.90
33139;DHT22;19501;50.948;5.316;2023-08-01T03:42:35;16.10;99.90
33139;DHT22;19501;50.948;5.316;2023-08-01T03:45:01;16.10;99.90
33139;DHT22;19501;50.948;5.316;2023-08-01T03:47:26;16.10;99.90
33139;DHT22;19501;50.948;5.316;2023-08-01T03:49:52;16.10;99.90
33139;DHT22;19501;50.948;5.316;2023-08-01T03:52:18;16.20;99.90
33139;DHT22;19501;50.948;5.316;2023-08-01T03:54:44;16.00;99.90
33139;DHT22;19501;50.948;5.316;2023-08-01T03:57:10;15.90;99.90
33139;DHT22;19501;50.948;5.316;2023-08-01T03:59:36;15.90;99.90
33139;DHT22;19501;50.948;5.316;2023-08-01T04:02:01;15.80;99.90
33139;DHT22;19501;50.948;5.316;2023-08-01T04:04:27;15.90;99.90
33139;DHT22;19501;50.948;5.316;2023-08-01T04:06:53;15.90;99.90
33139;DHT22;19501;50.948;5.316;2023-08-01T04:09:19;15.80;99.90
33139;DHT22;19501;50.948;5.316;2023-08-01T04:11:44;15.80;99.90
33139;DHT22;19501;50.948;5.316;2023-08-01T04:14:12;15.80;99.90
33139;DHT22;19501;50.948;5.316;2023-08-01T04:16:39;15.70;99.90
33139;DHT22;19501;50.948;5.316;2023-08-01T04:19:04;15.70;99.90
33139;DHT22;19501;50.948;5.316;2023-08-01T04:21:30;15.70;99.90
33139;DHT22;19501;50.948;5.316;2023-08-01T04:23:58;15.70;99.90
33139;DHT22;19501;50.948;5.316;2023-08-01T04:26:23;15.80;99.90
33139;DHT22;19501;50.948;5.316;2023-08-01T04:28:49;15.80;99.90
33139;DHT22;19501;50.948;5.316;2023-08-01T04:31:15;15.80;99.90
33139;DHT22;19501;50.948;5.316;2023-08-01T04:33:40;15.70;99.90
33139;DHT22;19501;50.948;5.316;2023-08-01T04:36:06;15.60;99.90
33139;DHT22;19501;50.948;5.316;2023-08-01T04:38:32;15.70;99.90
33139;DHT22;19501;50.948;5.316;2023-08-01T04:40:57;15.70;99.90
33139;DHT22;19501;50.948;5.316;2023-08-01T04:43:23;15.70;99.90
33139;DHT22;19501;50.948;5.316;2023-08-01T04:45:49;15.80;99.90
33139;DHT22;19501;50.948;5.316;2023-08-01T04:48:14;16.00;99.90
33139;DHT22;19501;50.948;5.316;2023-08-01T04:50:40;16.00;99.90
33139;DHT22;19501;50.948;5.316;2023-08-01T04:53:06;15.90;99.90
33139;DHT22;19501;50.948;5.316;2023-08-01T04:55:32;15.80;99.90
33139;DHT22;19501;50.948;5.316;2023-08-01T04:57:57;15.70;99.90
33139;DHT22;19501;50.948;5.316;2023-08-01T05:00:23;15.80;99.90
33139;DHT22;19501;50.948;5.316;2023-08-01T05:02:49;15.80;99.90
33139;DHT22;19501;50.948;5.316;2023-08-01T05:05:17;15.80;99.90
33139;DHT22;19501;50.948;5.316;2023-08-01T05:07:43;15.80;99.90
33139;DHT22;19501;50.948;5.316;2023-08-01T05:10:09;15.90;99.90
33139;DHT22;19501;50.948;5.316;2023-08-01T05:12:35;16.00;99.90
33139;DHT22;19501;50.948;5.316;2023-08-01T05:15:00;16.00;99.90
33139;DHT22;19501;50.948;5.316;2023-08-01T05:17:26;15.90;99.90
33139;DHT22;19501;50.948;5.316;2023-08-01T05:19:52;15.90;99.90
33139;DHT22;19501;50.948;5.316;2023-08-01T05:22:17;15.80;99.90
33139;DHT22;19501;50.948;5.316;2023-08-01T05:24:43;15.80;99.90
33139;DHT22;19501;50.948;5.316;2023-08-01T05:27:09;15.70;99.90
33139;DHT22;19501;50.948;5.316;2023-08-01T05:29:34;15.80;99.90
33139;DHT22;19501;50.948;5.316;2023-08-01T05:32:00;15.90;99.90
33139;DHT22;19501;50.948;5.316;2023-08-01T05:34:26;16.00;99.90
33139;DHT22;19501;50.948;5.316;2023-08-01T05:36:51;16.00;99.90
33139;DHT22;19501;50.948;5.316;2023-08-01T05:39:17;15.90;99.90
33139;DHT22;19501;50.948;5.316;2023-08-01T05:41:43;16.10;99.90
33139;DHT22;19501;50.948;5.316;2023-08-01T05:44:09;16.00;99.90
33139;DHT22;19501;50.948;5.316;2023-08-01T05:46:34;16.10;99.90
33139;DHT22;19501;50.948;5.316;2023-08-01T05:49:00;16.10;99.90
33139;DHT22;19501;50.948;5.316;2023-08-01T05:51:26;16.00;99.90
33139;DHT22;19501;50.948;5.316;2023-08-01T05:53:51;16.00;99.90
33139;DHT22;19501;50.948;5.316;2023-08-01T05:56:17;16.00;99.90
33139;DHT22;19501;50.948;5.316;2023-08-01T05:58:43;16.10;99.90
33139;DHT22;19501;50.948;5.316;2023-08-01T06:01:10;16.10;99.90
33139;DHT22;19501;50.948;5.316;2023-08-01T06:03:37;16.20;99.90
33139;DHT22;19501;50.948;5.316;2023-08-01T06:06:03;16.30;99.90
33139;DHT22;19501;50.948;5.316;2023-08-01T06:08:31;16.10;99.90
33139;DHT22;19501;50.948;5.316;2023-08-01T06:10:57;16.20;99.90
33139;DHT22;19501;50.948;5.316;2023-08-01T06:13:23;16.30;99.90
33139;DHT22;19501;50.948;5.316;2023-08-01T06:15:48;16.40;99.90
33139;DHT22;19501;50.948;5.316;2023-08-01T06:18:14;16.40;99.90
33139;DHT22;19501;50.948;5.316;2023-08-01T06:20:40;16.40;99.90
33139;DHT22;19501;50.948;5.316;2023-08-01T06:23:05;16.40;99.90
33139;DHT22;19501;50.948;5.316;2023-08-01T06:25:31;16.40;99.90
33139;DHT22;19501;50.948;5.316;2023-08-01T06:27:59;16.30;99.90
33139;DHT22;19501;50.948;5.316;2023-08-01T06:30:27;16.50;99.90
33139;DHT22;19501;50.948;5.316;2023-08-01T06:32:53;16.50;99.90
33139;DHT22;19501;50.948;5.316;2023-08-01T06:35:18;16.60;99.90
33139;DHT22;19501;50.948;5.316;2023-08-01T06:37:44;16.60;99.90
33139;DHT22;19501;50.948;5.316;2023-08-01T06:40:11;16.50;99.90
33139;DHT22;19501;50.948;5.316;2023-08-01T06:42:37;16.50;99.90
33139;DHT22;19501;50.948;5.316;2023-08-01T06:45:03;16.50;99.90
33139;DHT22;19501;50.948;5.316;2023-08-01T06:47:28;16.60;99.90
33139;DHT22;19501;50.948;5.316;2023-08-01T06:49:54;16.70;99.90
33139;DHT22;19501;50.948;5.316;2023-08-01T06:52:19;16.80;99.90
33139;DHT22;19501;50.948;5.316;2023-08-01T06:54:45;16.80;99.90
33139;DHT22;19501;50.948;5.316;2023-08-01T06:57:11;17.00;99.90
33139;DHT22;19501;50.948;5.316;2023-08-01T06:59:36;16.90;99.90
33139;DHT22;19501;50.948;5.316;2023-08-01T07:02:02;17.00;99.90
33139;DHT22;19501;50.948;5.316;2023-08-01T07:04:28;16.90;99.90
33139;DHT22;19501;50.948;5.316;2023-08-01T07:06:54;17.00;99.90
33139;DHT22;19501;50.948;5.316;2023-08-01T07:09:19;17.00;99.90
33139;DHT22;19501;50.948;5.316;2023-08-01T07:11:45;16.90;99.90
33139;DHT22;19501;50.948;5.316;2023-08-01T07:14:11;16.90;99.90
33139;DHT22;19501;50.948;5.316;2023-08-01T07:16:36;17.00;99.90
33139;DHT22;19501;50.948;5.316;2023-08-01T07:19:02;17.00;99.90
33139;DHT22;19501;50.948;5.316;2023-08-01T07:21:27;17.00;99.90
33139;DHT22;19501;50.948;5.316;2023-08-01T07:23:54;17.00;99.90
33139;DHT22;19501;50.948;5.316;2023-08-01T07:26:20;17.10;99.90
33139;DHT22;19501;50.948;5.316;2023-08-01T07:28:46;16.90;99.90
33139;DHT22;19501;50.948;5.316;2023-08-01T07:31:14;17.00;99.90
33139;DHT22;19501;50.948;5.316;2023-08-01T07:33:39;16.90;99.90
33139;DHT22;19501;50.948;5.316;2023-08-01T07:36:05;17.10;99.90
33139;DHT22;19501;50.948;5.316;2023-08-01T07:38:31;17.30;99.90
33139;DHT22;19501;50.948;5.316;2023-08-01T07:41:03;17.40;99.90
33139;DHT22;19501;50.948;5.316;2023-08-01T07:43:29;17.60;99.90
33139;DHT22;19501;50.948;5.316;2023-08-01T07:45:56;17.60;99.90
33139;DHT22;19501;50.948;5.316;2023-08-01T07:48:22;17.70;99.90
33139;DHT22;19501;50.948;5.316;2023-08-01T07:50:48;18.00;99.90
33139;DHT22;19501;50.948;5.316;2023-08-01T07:53:13;18.00;99.90
33139;DHT22;19501;50.948;5.316;2023-08-01T07:55:39;18.00;99.90
33139;DHT22;19501;50.948;5.316;2023-08-01T07:58:04;18.10;99.90
33139;DHT22;19501;50.948;5.316;2023-08-01T08:00:34;18.20;99.90
33139;DHT22;19501;50.948;5.316;2023-08-01T08:03:00;18.10;99.90
33139;DHT22;19501;50.948;5.316;2023-08-01T08:05:26;18.20;99.90
33139;DHT22;19501;50.948;5.316;2023-08-01T08:07:51;18.20;99.90
33139;DHT22;19501;50.948;5.316;2023-08-01T08:10:17;18.50;99.90
33139;DHT22;19501;50.948;5.316;2023-08-01T08:12:45;18.40;99.90
33139;DHT22;19501;50.948;5.316;2023-08-01T08:15:11;18.30;99.90
33139;DHT22;19501;50.948;5.316;2023-08-01T08:17:38;18.30;99.90
33139;DHT22;19501;50.948;5.316;2023-08-01T08:20:05;18.10;99.90
33139;DHT22;19501;50.948;5.316;2023-08-01T08:22:31;18.10;99.90
33139;DHT22;19501;50.948;5.316;2023-08-01T08:24:57;18.10;99.90
33139;DHT22;19501;50.948;5.316;2023-08-01T08:27:23;18.20;99.90
33139;DHT22;19501;50.948;5.316;2023-08-01T08:29:49;18.10;99.90
33139;DHT22;19501;50.948;5.316;2023-08-01T08:32:15;18.10;99.90
33139;DHT22;19501;50.948;5.316;2023-08-01T08:34:40;18.20;99.90
33139;DHT22;19501;50.948;5.316;2023-08-01T08:37:06;18.30;99.90
33139;DHT22;19501;50.948;5.316;2023-08-01T08:39:32;18.40;99.90
33139;DHT22;19501;50.948;5.316;2023-08-01T08:41:57;18.40;99.90
33139;DHT22;19501;50.948;5.316;2023-08-01T08:44:24;18.40;99.90
33139;DHT22;19501;50.948;5.316;2023-08-01T08:46:55;18.40;99.90
33139;DHT22;19501;50.948;5.316;2023-08-01T08:49:26;18.70;99.90
33139;DHT22;19501;50.948;5.316;2023-08-01T08:51:52;18.80;99.90
33139;DHT22;19501;50.948;5.316;2023-08-01T08:54:19;18.70;99.90
33139;DHT22;19501;50.948;5.316;2023-08-01T08:56:46;18.80;99.90
33139;DHT22;19501;50.948;5.316;2023-08-01T08:59:12;18.70;99.90
33139;DHT22;19501;50.948;5.316;2023-08-01T09:01:39;18.90;99.90
33139;DHT22;19501;50.948;5.316;2023-08-01T09:04:05;19.10;99.90
33139;DHT22;19501;50.948;5.316;2023-08-01T09:06:50;19.10;99.90
33139;DHT22;19501;50.948;5.316;2023-08-01T09:09:17;19.00;99.90
33139;DHT22;19501;50.948;5.316;2023-08-01T09:11:51;19.00;99.90
33139;DHT22;19501;50.948;5.316;2023-08-01T09:14:17;18.80;99.90
33139;DHT22;19501;50.948;5.316;2023-08-01T09:16:45;19.00;99.90
33139;DHT22;19501;50.948;5.316;2023-08-01T09:19:20;19.20;99.90
33139;DHT22;19501;50.948;5.316;2023-08-01T09:21:47;19.50;99.90
33139;DHT22;19501;50.948;5.316;2023-08-01T09:24:15;19.90;99.90
33139;DHT22;19501;50.948;5.316;2023-08-01T09:26:41;19.90;99.90
33139;DHT22;19501;50.948;5.316;2023-08-01T09:29:08;19.50;99.90
33139;DHT22;19501;50.948;5.316;2023-08-01T09:31:38;19.40;99.90
33139;DHT22;19501;50.948;5.316;2023-08-01T09:34:21;19.50;99.90
33139;DHT22;19501;50.948;5.316;2023-08-01T09:36:47;19.90;99.90
33139;DHT22;19501;50.948;5.316;2023-08-01T09:39:17;20.20;99.90
33139;DHT22;19501;50.948;5.316;2023-08-01T09:41:43;20.50;99.90
33139;DHT22;19501;50.948;5.316;2023-08-01T09:44:16;20.50;99.90
33139;DHT22;19501;50.948;5.316;2023-08-01T09:46:58;20.60;99.90
33139;DHT22;19501;50.948;5.316;2023-08-01T09:49:24;20.70;99.90
33139;DHT22;19501;50.948;5.316;2023-08-01T09:51:50;20.80;99.90
33139;DHT22;19501;50.948;5.316;2023-08-01T09:54:17;20.80;99.90
33139;DHT22;19501;50.948;5.316;2023-08-01T09:56:49;20.60;99.90
33139;DHT22;19501;50.948;5.316;2023-08-01T09:59:25;20.50;99.90
33139;DHT22;19501;50.948;5.316;2023-08-01T10:01:53;20.40;99.90
33139;DHT22;19501;50.948;5.316;2023-08-01T10:04:21;20.40;99.90
33139;DHT22;19501;50.948;5.316;2023-08-01T10:06:57;20.50;99.90
33139;DHT22;19501;50.948;5.316;2023-08-01T10:09:26;20.50;99.90
33139;DHT22;19501;50.948;5.316;2023-08-01T10:11:56;20.80;99.90
33139;DHT22;19501;50.948;5.316;2023-08-01T10:14:23;20.70;99.90
33139;DHT22;19501;50.948;5.316;2023-08-01T10:16:49;20.60;99.90
33139;DHT22;19501;50.948;5.316;2023-08-01T10:19:17;20.70;99.90
33139;DHT22;19501;50.948;5.316;2023-08-01T10:21:44;20.80;99.90
33139;DHT22;19501;50.948;5.316;2023-08-01T10:24:11;20.60;99.90
33139;DHT22;19501;50.948;5.316;2023-08-01T10:26:37;20.70;99.90
33139;DHT22;19501;50.948;5.316;2023-08-01T10:29:03;20.60;99.90
33139;DHT22;19501;50.948;5.316;2023-08-01T10:31:31;20.80;99.90
33139;DHT22;19501;50.948;5.316;2023-08-01T10:34:12;21.00;99.90
33139;DHT22;19501;50.948;5.316;2023-08-01T10:36:38;20.80;99.90
33139;DHT22;19501;50.948;5.316;2023-08-01T10:39:04;20.80;99.90
33139;DHT22;19501;50.948;5.316;2023-08-01T10:41:36;20.80;99.90
33139;DHT22;19501;50.948;5.316;2023-08-01T10:52:15;20.80;99.90
33139;DHT22;19501;50.948;5.316;2023-08-01T10:54:41;20.90;99.90
33139;DHT22;19501;50.948;5.316;2023-08-01T10:57:07;20.50;99.90
33139;DHT22;19501;50.948;5.316;2023-08-01T10:59:35;20.60;99.90
33139;DHT22;19501;50.948;5.316;2023-08-01T11:02:06;20.60;99.90
33139;DHT22;19501;50.948;5.316;2023-08-01T11:04:32;20.70;99.90
33139;DHT22;19501;50.948;5.316;2023-08-01T11:06:58;20.80;99.90
33139;DHT22;19501;50.948;5.316;2023-08-01T11:09:27;21.00;99.90
33139;DHT22;19501;50.948;5.316;2023-08-01T11:11:55;21.20;99.90
33139;DHT22;19501;50.948;5.316;2023-08-01T11:14:28;21.20;99.90
33139;DHT22;19501;50.948;5.316;2023-08-01T11:16:55;21.30;99.90
33139;DHT22;19501;50.948;5.316;2023-08-01T11:19:26;21.40;99.90
33139;DHT22;19501;50.948;5.316;2023-08-01T11:21:53;21.70;99.90
33139;DHT22;19501;50.948;5.316;2023-08-01T11:24:22;21.90;99.90
33139;DHT22;19501;50.948;5.316;2023-08-01T11:26:49;21.80;99.90
33139;DHT22;19501;50.948;5.316;2023-08-01T11:29:17;21.70;99.90
33139;DHT22;19501;50.948;5.316;2023-08-01T11:32:12;21.70;99.90
33139;DHT22;19501;50.948;5.316;2023-08-01T11:34:41;21.80;99.90
33139;DHT22;19501;50.948;5.316;2023-08-01T11:37:13;22.00;99.90
33139;DHT22;19501;50.948;5.316;2023-08-01T11:39:39;21.90;99.90
33139;DHT22;19501;50.948;5.316;2023-08-01T11:42:16;21.90;99.90
33139;DHT22;19501;50.948;5.316;2023-08-01T11:44:43;22.50;99.90
33139;DHT22;19501;50.948;5.316;2023-08-01T11:47:16;22.60;99.90
33139;DHT22;19501;50.948;5.316;2023-08-01T11:49:50;22.80;99.90
33139;DHT22;19501;50.948;5.316;2023-08-01T11:52:23;22.90;99.90
33139;DHT22;19501;50.948;5.316;2023-08-01T11:54:49;22.90;99.90
33139;DHT22;19501;50.948;5.316;2023-08-01T11:57:14;22.60;99.90
33139;DHT22;19501;50.948;5.316;2023-08-01T11:59:54;22.50;99.90
33139;DHT22;19501;50.948;5.316;2023-08-01T12:02:28;22.60;99.90
33139;DHT22;19501;50.948;5.316;2023-08-01T12:04:55;22.70;99.90
33139;DHT22;19501;50.948;5.316;2023-08-01T12:07:24;22.70;99.90
33139;DHT22;19501;50.948;5.316;2023-08-01T12:10:00;23.60;99.90
33139;DHT22;19501;50.948;5.316;2023-08-01T12:12:27;24.00;99.90
33139;DHT22;19501;50.948;5.316;2023-08-01T12:14:53;23.40;99.90
33139;DHT22;19501;50.948;5.316;2023-08-01T12:17:19;23.10;99.90
33139;DHT22;19501;50.948;5.316;2023-08-01T12:19:45;23.00;99.90
33139;DHT22;19501;50.948;5.316;2023-08-01T12:22:12;22.70;99.90
33139;DHT22;19501;50.948;5.316;2023-08-01T12:24:38;22.70;99.90
33139;DHT22;19501;50.948;5.316;2023-08-01T12:27:07;22.60;99.90
33139;DHT22;19501;50.948;5.316;2023-08-01T12:29:33;22.60;99.90
33139;DHT22;19501;50.948;5.316;2023-08-01T12:31:59;22.50;99.90
33139;DHT22;19501;50.948;5.316;2023-08-01T12:34:25;22.40;99.90
33139;DHT22;19501;50.948;5.316;2023-08-01T12:36:52;22.40;99.90
33139;DHT22;19501;50.948;5.316;2023-08-01T12:39:18;22.00;99.90
33139;DHT22;19501;50.948;5.316;2023-08-01T12:41:44;21.70;99.90
33139;DHT22;19501;50.948;5.316;2023-08-01T12:44:09;21.50;99.90
33139;DHT22;19501;50.948;5.316;2023-08-01T12:46:35;21.40;99.90
33139;DHT22;19501;50.948;5.316;2023-08-01T12:49:01;21.30;99.90
33139;DHT22;19501;50.948;5.316;2023-08-01T12:51:26;21.40;99.90
33139;DHT22;19501;50.948;5.316;2023-08-01T12:53:52;21.60;99.90
33139;DHT22;19501;50.948;5.316;2023-08-01T12:56:18;22.30;99.90
33139;DHT22;19501;50.948;5.316;2023-08-01T12:58:43;23.30;99.90
33139;DHT22;19501;50.948;5.316;2023-08-01T13:01:09;24.30;99.90
33139;DHT22;19501;50.948;5.316;2023-08-01T13:03:35;24.30;99.90
33139;DHT22;19501;50.948;5.316;2023-08-01T13:06:00;24.20;99.90
33139;DHT22;19501;50.948;5.316;2023-08-01T13:08:26;24.30;99.90
33139;DHT22;19501;50.948;5.316;2023-08-01T13:10:52;23.50;99.90
33139;DHT22;19501;50.948;5.316;2023-08-01T13:13:17;22.80;99.90
33139;DHT22;19501;50.948;5.316;2023-08-01T13:15:43;22.30;99.90
33139;DHT22;19501;50.948;5.316;2023-08-01T13:18:10;22.20;99.90
33139;DHT22;19501;50.948;5.316;2023-08-01T13:20:36;22.10;99.90
33139;DHT22;19501;50.948;5.316;2023-08-01T13:23:02;21.90;99.90
33139;DHT22;19501;50.948;5.316;2023-08-01T13:25:28;21.70;99.90
33139;DHT22;19501;50.948;5.316;2023-08-01T13:27:54;21.50;99.90
33139;DHT22;19501;50.948;5.316;2023-08-01T13:30:20;21.80;99.90
33139;DHT22;19501;50.948;5.316;2023-08-01T13:32:48;22.20;99.90
33139;DHT22;19501;50.948;5.316;2023-08-01T13:35:14;22.00;99.90
33139;DHT22;19501;50.948;5.316;2023-08-01T13:37:40;21.60;99.90
33139;DHT22;19501;50.948;5.316;2023-08-01T13:40:07;21.50;99.90
33139;DHT22;19501;50.948;5.316;2023-08-01T13:42:33;21.10;99.90
33139;DHT22;19501;50.948;5.316;2023-08-01T13:44:59;21.10;99.90
33139;DHT22;19501;50.948;5.316;2023-08-01T13:47:25;21.10;99.90
33139;DHT22;19501;50.948;5.316;2023-08-01T13:49:50;21.40;99.90
33139;DHT22;19501;50.948;5.316;2023-08-01T13:52:16;21.40;99.90
33139;DHT22;19501;50.948;5.316;2023-08-01T13:54:42;21.60;99.90
33139;DHT22;19501;50.948;5.316;2023-08-01T13:57:07;21.80;99.90
33139;DHT22;19501;50.948;5.316;2023-08-01T13:59:35;21.70;99.90
33139;DHT22;19501;50.948;5.316;2023-08-01T14:02:02;21.50;99.90
33139;DHT22;19501;50.948;5.316;2023-08-01T14:04:28;21.50;99.90
33139;DHT22;19501;50.948;5.316;2023-08-01T14:06:54;21.60;99.90
33139;DHT22;19501;50.948;5.316;2023-08-01T14:09:20;21.80;99.90
33139;DHT22;19501;50.948;5.316;2023-08-01T14:11:46;21.80;99.90
33139;DHT22;19501;50.948;5.316;2023-08-01T14:14:13;22.00;99.90
33139;DHT22;19501;50.948;5.316;2023-08-01T14:16:39;22.60;99.90
33139;DHT22;19501;50.948;5.316;2023-08-01T14:19:04;22.60;99.90
33139;DHT22;19501;50.948;5.316;2023-08-01T14:21:34;22.70;99.90
33139;DHT22;19501;50.948;5.316;2023-08-01T14:24:00;22.70;99.90
33139;DHT22;19501;50.948;5.316;2023-08-01T14:26:26;22.80;99.90
33139;DHT22;19501;50.948;5.316;2023-08-01T14:28:52;22.40;99.90
33139;DHT22;19501;50.948;5.316;2023-08-01T14:31:17;22.70;99.90
33139;DHT22;19501;50.948;5.316;2023-08-01T14:33:43;22.60;99.90
33139;DHT22;19501;50.948;5.316;2023-08-01T14:36:09;22.60;99.90
33139;DHT22;19501;50.948;5.316;2023-08-01T14:38:38;22.50;99.90
33139;DHT22;19501;50.948;5.316;2023-08-01T14:41:03;22.30;99.90
33139;DHT22;19501;50.948;5.316;2023-08-01T14:43:29;22.10;99.90
33139;DHT22;19501;50.948;5.316;2023-08-01T14:45:55;21.80;99.90
33139;DHT22;19501;50.948;5.316;2023-08-01T14:48:20;21.80;99.90
33139;DHT22;19501;50.948;5.316;2023-08-01T14:50:46;21.90;99.90
33139;DHT22;19501;50.948;5.316;2023-08-01T14:53:12;21.90;99.90
33139;DHT22;19501;50.948;5.316;2023-08-01T14:55:37;21.70;99.90
33139;DHT22;19501;50.948;5.316;2023-08-01T14:58:03;21.50;99.90
33139;DHT22;19501;50.948;5.316;2023-08-01T15:00:34;21.20;99.90
33139;DHT22;19501;50.948;5.316;2023-08-01T15:03:00;21.00;99.90
33139;DHT22;19501;50.948;5.316;2023-08-01T15:05:28;20.80;99.90
33139;DHT22;19501;50.948;5.316;2023-08-01T15:07:53;20.60;99.90
33139;DHT22;19501;50.948;5.316;2023-08-01T15:10:19;20.50;99.90
33139;DHT22;19501;50.948;5.316;2023-08-01T15:12:45;20.50;99.90
33139;DHT22;19501;50.948;5.316;2023-08-01T15:15:10;20.60;99.90
33139;DHT22;19501;50.948;5.316;2023-08-01T15:17:36;21.00;99.90
33139;DHT22;19501;50.948;5.316;2023-08-01T15:20:02;21.10;99.90
33139;DHT22;19501;50.948;5.316;2023-08-01T15:22:29;20.90;99.90
33139;DHT22;19501;50.948;5.316;2023-08-01T15:24:54;20.80;99.90
33139;DHT22;19501;50.948;5.316;2023-08-01T15:27:20;20.60;99.90
33139;DHT22;19501;50.948;5.316;2023-08-01T15:29:46;20.40;99.90
33139;DHT22;19501;50.948;5.316;2023-08-01T15:32:17;20.00;99.90
33139;DHT22;19501;50.948;5.316;2023-08-01T15:34:42;19.90;99.90